Time;durP1;ratioP1;P1;durP2;ratioP2;P2;SDS_P1;SDS_P2;PMS_P1;PMS_P2;Temp;Humidity;BMP_temperature;BMP_pressure;BME280_temperature;BME280_humidity;BME280_pressure;Samples;Min_cycle;Max_cycle;Signal;HPM_P1;HPM_P2
2023/08/29 00:00:10;;;;;;;;;;;;;;;19.35;100.00;99018.38;5013382;28;1030;-57
2023/08/29 00:02:40;;;;;;;;;;;;;;;19.42;100.00;99025.66;5013518;28;872;-57
2023/08/29 00:05:08;;;;;;;;;;;;;;;19.51;100.00;99028.34;5013289;28;1914;-57
2023/08/29 00:07:36;;;;;;;;;;;;;;;19.53;100.00;99026.63;5013372;28;836;-58
2023/08/29 00:10:03;;;;;;;;;;;;;;;19.54;100.00;99025.38;4995572;28;1441;-57
2023/08/29 00:12:32;;;;;;;;;;;;;;;19.51;100.00;99023.50;5013301;28;866;-57
2023/08/29 00:14:59;;;;;;;;;;;;;;;19.45;100.00;99022.63;5013164;28;824;-57
2023/08/29 00:17:26;;;;;;;;;;;;;;;19.35;100.00;99015.56;5013165;28;862;-57
2023/08/29 00:19:53;;;;;;;;;;;;;;;19.23;100.00;99008.25;5013147;28;863;-57
2023/08/29 00:22:20;;;;;;;;;;;;;;;19.13;100.00;98999.13;5013317;28;828;-57
2023/08/29 00:24:52;;;;;;;;;;;;;;;19.03;100.00;99003.28;5013146;28;1890;-57
2023/08/29 00:27:21;;;;;;;;;;;;;;;18.95;100.00;99000.84;5012937;28;863;-57
2023/08/29 00:29:48;;;;;;;;;;;;;;;18.92;100.00;99006.63;5012939;28;852;-57
2023/08/29 00:32:15;;;;;;;;;;;;;;;18.88;100.00;99006.03;5012827;28;884;-58
2023/08/29 00:34:42;;;;;;;;;;;;;;;18.82;100.00;99011.53;5012836;28;817;-57
2023/08/29 00:37:09;;;;;;;;;;;;;;;18.76;100.00;99003.00;5012775;28;875;-57
2023/08/29 00:39:35;;;;;;;;;;;;;;;18.71;100.00;98998.06;5012785;28;821;-57
2023/08/29 00:42:02;;;;;;;;;;;;;;;18.65;100.00;98996.38;5012700;28;864;-57
2023/08/29 00:44:29;;;;;;;;;;;;;;;18.59;100.00;99004.69;5012353;28;1882;-57
2023/08/29 00:46:56;;;;;;;;;;;;;;;18.53;100.00;99006.59;5012213;28;817;-57
2023/08/29 00:49:24;;;;;;;;;;;;;;;18.47;100.00;98994.50;5012533;28;824;-57
2023/08/29 00:51:51;;;;;;;;;;;;;;;18.42;100.00;98995.16;5012748;28;876;-57
2023/08/29 00:54:19;;;;;;;;;;;;;;;18.40;100.00;98992.84;5012536;28;844;-57
2023/08/29 00:56:49;;;;;;;;;;;;;;;18.36;100.00;99000.63;5012793;28;872;-57
2023/08/29 00:59:16;;;;;;;;;;;;;;;18.32;100.00;98991.63;5012648;28;1227;-57
2023/08/29 01:01:42;;;;;;;;;;;;;;;18.32;100.00;99002.81;5012546;28;1237;-57
2023/08/29 01:04:09;;;;;;;;;;;;;;;18.30;100.00;98994.13;5012627;28;1963;-57
2023/08/29 01:06:35;;;;;;;;;;;;;;;18.32;100.00;98992.41;5012464;28;1286;-57
2023/08/29 01:09:06;;;;;;;;;;;;;;;18.38;100.00;98994.56;5012311;28;828;-58
2023/08/29 01:11:55;;;;;;;;;;;;;;;18.39;100.00;98994.06;5012338;28;923;-57
2023/08/29 01:14:29;;;;;;;;;;;;;;;18.40;100.00;98986.47;5012173;28;948;-57
2023/08/29 01:17:04;;;;;;;;;;;;;;;18.43;100.00;98982.72;5012208;28;817;-57
2023/08/29 01:19:31;;;;;;;;;;;;;;;18.47;100.00;98989.66;5012198;28;892;-57
2023/08/29 01:22:17;;;;;;;;;;;;;;;18.48;100.00;98993.25;5012044;28;888;-57
2023/08/29 01:24:49;;;;;;;;;;;;;;;18.46;100.00;98982.53;5012043;28;1877;-57
2023/08/29 01:27:17;;;;;;;;;;;;;;;18.46;100.00;98987.38;5012292;28;851;-57
2023/08/29 01:29:46;;;;;;;;;;;;;;;18.46;100.00;98987.38;5012075;28;912;-57
2023/08/29 01:32:14;;;;;;;;;;;;;;;18.47;100.00;98995.25;5012017;28;841;-57
2023/08/29 01:34:44;;;;;;;;;;;;;;;18.47;100.00;98991.69;5011894;28;876;-57
2023/08/29 01:37:11;;;;;;;;;;;;;;;18.45;100.00;98977.41;5012027;28;896;-57
2023/08/29 01:39:38;;;;;;;;;;;;;;;18.48;100.00;98982.84;5011944;28;895;-57
2023/08/29 01:42:05;;;;;;;;;;;;;;;18.50;100.00;98993.56;5012350;28;899;-57
2023/08/29 01:44:31;;;;;;;;;;;;;;;18.55;100.00;98988.06;5011904;28;1886;-57
2023/08/29 01:46:58;;;;;;;;;;;;;;;18.57;100.00;98988.34;5012087;28;839;-58
2023/08/29 01:49:25;;;;;;;;;;;;;;;18.60;100.00;98985.84;5011830;28;849;-57
2023/08/29 01:51:52;;;;;;;;;;;;;;;18.60;100.00;98983.06;5012125;28;876;-58
2023/08/29 01:54:19;;;;;;;;;;;;;;;18.62;100.00;98986.91;4994209;28;1482;-57
2023/08/29 01:56:46;;;;;;;;;;;;;;;18.65;100.00;98985.97;5011894;28;967;-57
2023/08/29 01:59:12;;;;;;;;;;;;;;;18.67;100.00;98985.47;5013173;28;861;-57
2023/08/29 02:01:39;;;;;;;;;;;;;;;18.66;100.00;98981.16;5015753;28;856;-57
2023/08/29 02:04:05;;;;;;;;;;;;;;;18.67;100.00;98988.28;5015490;28;1914;-57
2023/08/29 02:06:33;;;;;;;;;;;;;;;18.66;100.00;98983.94;5015626;28;819;-57
2023/08/29 02:08:59;;;;;;;;;;;;;;;18.64;100.00;98987.22;5014282;28;1204;-57
2023/08/29 02:11:26;;;;;;;;;;;;;;;18.64;100.00;98984.41;5014246;28;1311;-58
2023/08/29 02:13:52;;;;;;;;;;;;;;;18.66;100.00;98978.34;5015501;28;900;-57
2023/08/29 02:16:19;;;;;;;;;;;;;;;18.65;100.00;98979.59;5015396;28;868;-57
2023/08/29 02:18:46;;;;;;;;;;;;;;;18.63;100.00;98973.72;5015674;28;871;-57
2023/08/29 02:21:13;;;;;;;;;;;;;;;18.62;100.00;98975.72;5015276;28;887;-58
2023/08/29 02:23:39;;;;;;;;;;;;;;;18.63;100.00;98973.72;5015300;28;1915;-57
2023/08/29 02:26:06;;;;;;;;;;;;;;;18.64;100.00;98970.44;5015304;28;836;-57
2023/08/29 02:28:36;;;;;;;;;;;;;;;18.63;100.00;98974.50;5015152;28;848;-58
2023/08/29 02:31:04;;;;;;;;;;;;;;;18.65;100.00;98974.78;5015419;28;879;-58
2023/08/29 02:33:31;;;;;;;;;;;;;;;18.64;100.00;98972.47;5015180;28;867;-57
2023/08/29 02:35:57;;;;;;;;;;;;;;;18.65;100.00;98976.78;5015068;28;789;-57
2023/08/29 02:38:24;;;;;;;;;;;;;;;18.66;100.00;98972.75;5015016;28;903;-57
2023/08/29 02:40:51;;;;;;;;;;;;;;;18.63;100.00;98968.91;5015153;28;879;-57
2023/08/29 02:43:18;;;;;;;;;;;;;;;18.61;100.00;98984.63;5015196;28;1012;-57
2023/08/29 02:45:44;;;;;;;;;;;;;;;18.57;100.00;98979.19;5014796;28;1886;-57
2023/08/29 02:48:11;;;;;;;;;;;;;;;18.55;100.00;98976.09;5014849;28;828;-57
2023/08/29 02:50:38;;;;;;;;;;;;;;;18.54;100.00;98974.53;5014845;28;848;-57
2023/08/29 02:53:05;;;;;;;;;;;;;;;18.50;100.00;98973.97;5014686;28;868;-57
2023/08/29 02:55:32;;;;;;;;;;;;;;;18.47;100.00;98978.47;5014760;28;833;-57
2023/08/29 02:57:58;;;;;;;;;;;;;;;18.49;100.00;98980.81;5014738;28;832;-57
2023/08/29 03:00:25;;;;;;;;;;;;;;;18.47;100.00;98978.47;5014703;28;836;-57
2023/08/29 03:02:52;;;;;;;;;;;;;;;18.46;100.00;98976.94;5014526;28;845;-57
2023/08/29 03:05:18;;;;;;;;;;;;;;;18.46;100.00;98971.34;5014500;28;1906;-57
2023/08/29 03:07:45;;;;;;;;;;;;;;;18.45;100.00;98975.38;5014374;28;879;-57
2023/08/29 03:10:12;;;;;;;;;;;;;;;18.43;100.00;98972.28;5014132;28;824;-58
2023/08/29 03:12:38;;;;;;;;;;;;;;;18.38;100.00;98964.56;5014773;28;876;-57
2023/08/29 03:15:05;;;;;;;;;;;;;;;18.36;100.00;98967.06;5014415;28;801;-58
2023/08/29 03:17:32;;;;;;;;;;;;;;;18.35;100.00;98969.09;5014461;28;876;-57
2023/08/29 03:20:00;;;;;;;;;;;;;;;18.36;100.00;98964.25;5014397;28;840;-57
2023/08/29 03:22:27;;;;;;;;;;;;;;;18.34;100.00;98963.97;5012966;28;1188;-59
2023/08/29 03:24:54;;;;;;;;;;;;;;;18.34;100.00;98961.16;5014088;28;1945;-57
2023/08/29 03:27:21;;;;;;;;;;;;;;;18.34;100.00;98958.38;5014097;28;865;-57
2023/08/29 03:29:50;;;;;;;;;;;;;;;18.36;100.00;98955.88;5014077;28;872;-58
2023/08/29 03:32:17;;;;;;;;;;;;;;;18.43;100.00;98954.72;5012806;28;902;-57
2023/08/29 03:34:44;;;;;;;;;;;;;;;18.48;100.00;98957.66;5013953;28;875;-57
2023/08/29 03:37:10;;;;;;;;;;;;;;;18.52;100.00;98955.44;5014207;28;828;-58
2023/08/29 03:39:37;;;;;;;;;;;;;;;18.54;100.00;98961.34;5013924;28;824;-57
2023/08/29 03:42:04;;;;;;;;;;;;;;;18.59;100.00;98959.13;5013762;28;888;-57
2023/08/29 03:44:31;;;;;;;;;;;;;;;18.61;100.00;98957.41;5012523;28;1906;-57
2023/08/29 03:46:58;;;;;;;;;;;;;;;18.63;100.00;98960.50;5013810;28;832;-57
2023/08/29 03:49:26;;;;;;;;;;;;;;;18.64;100.00;98959.22;5013709;28;880;-57
2023/08/29 03:51:53;;;;;;;;;;;;;;;18.66;100.00;98953.94;5013907;28;828;-57
2023/08/29 03:54:19;;;;;;;;;;;;;;;18.71;100.00;98952.50;5013710;28;844;-57
2023/08/29 03:56:47;;;;;;;;;;;;;;;18.71;100.00;98953.28;5013423;28;1018;-58
2023/08/29 03:59:15;;;;;;;;;;;;;;;18.72;100.00;98949.22;5013565;28;872;-57
2023/08/29 04:01:43;;;;;;;;;;;;;;;18.74;100.00;98946.72;5013423;28;843;-57
2023/08/29 04:04:10;;;;;;;;;;;;;;;18.78;100.00;98940.97;5013346;28;1910;-57
2023/08/29 04:06:39;;;;;;;;;;;;;;;18.82;100.00;98941.56;5013436;28;880;-57
2023/08/29 04:09:08;;;;;;;;;;;;;;;18.83;100.00;98943.09;5013355;28;848;-57
2023/08/29 04:11:35;;;;;;;;;;;;;;;18.87;100.00;98945.72;5013278;28;880;-57
2023/08/29 04:14:01;;;;;;;;;;;;;;;18.92;100.00;98942.25;5013381;28;912;-57
2023/08/29 04:16:28;;;;;;;;;;;;;;;19.00;100.00;98948.25;5013238;28;856;-58
2023/08/29 04:18:55;;;;;;;;;;;;;;;19.09;100.00;98946.09;5013135;28;879;-57
2023/08/29 04:21:21;;;;;;;;;;;;;;;19.20;100.00;98947.56;5012398;28;828;-57
2023/08/29 04:23:48;;;;;;;;;;;;;;;19.28;100.00;98943.13;5012993;28;1886;-57
2023/08/29 04:26:15;;;;;;;;;;;;;;;19.36;100.00;98949.91;5013035;28;852;-57
2023/08/29 04:28:42;;;;;;;;;;;;;;;19.45;100.00;98949.78;5012894;28;883;-57
2023/08/29 04:31:12;;;;;;;;;;;;;;;19.56;100.00;98949.19;5012955;28;871;-57
2023/08/29 04:33:38;;;;;;;;;;;;;;;19.68;100.00;98959.34;5013148;28;877;-57
2023/08/29 04:36:05;;;;;;;;;;;;;;;19.81;100.00;98955.47;5012843;28;848;-57
2023/08/29 04:38:32;;;;;;;;;;;;;;;19.94;100.00;98950.31;5012789;28;840;-57
2023/08/29 04:40:59;;;;;;;;;;;;;;;20.08;100.00;98949.50;5011474;28;2361;-57
2023/08/29 04:43:26;;;;;;;;;;;;;;;20.22;100.00;98947.13;5012983;28;919;-57
2023/08/29 04:45:53;;;;;;;;;;;;;;;20.38;100.00;98940.97;5012396;28;1961;-57
2023/08/29 04:48:20;;;;;;;;;;;;;;;20.51;100.00;98941.38;5012651;28;833;-57
2023/08/29 04:50:46;;;;;;;;;;;;;;;20.68;100.00;98944.44;5012646;28;833;-57
2023/08/29 04:53:13;;;;;;;;;;;;;;;20.87;100.00;98936.47;5012529;28;860;-57
2023/08/29 04:55:39;;;;;;;;;;;;;;;21.07;100.00;98941.25;5012399;28;896;-57
2023/08/29 04:58:06;;;;;;;;;;;;;;;21.23;100.00;98944.72;5012486;28;872;-57
2023/08/29 05:00:33;;;;;;;;;;;;;;;21.41;100.00;98938.75;5012506;28;900;-57
2023/08/29 05:02:59;;;;;;;;;;;;;;;21.57;100.00;98940.97;5012424;28;835;-57
2023/08/29 05:05:26;;;;;;;;;;;;;;;21.74;100.00;98943.13;5012312;28;1906;-57
2023/08/29 05:07:53;;;;;;;;;;;;;;;21.95;100.00;98946.59;5012373;28;859;-57
2023/08/29 05:10:20;;;;;;;;;;;;;;;22.21;100.00;98935.22;5012307;28;904;-57
2023/08/29 05:12:46;;;;;;;;;;;;;;;22.52;100.00;98930.78;5012677;28;880;-57
2023/08/29 05:15:14;;;;;;;;;;;;;;;22.86;100.00;98934.47;5012198;28;874;-57
2023/08/29 05:17:41;;;;;;;;;;;;;;;23.21;100.00;98933.28;5012359;28;923;-57
2023/08/29 05:20:09;;;;;;;;;;;;;;;23.52;99.73;98935.09;5012076;28;853;-57
2023/08/29 05:22:37;;;;;;;;;;;;;;;23.77;97.78;98936.13;5012241;28;900;-56
2023/08/29 05:25:04;;;;;;;;;;;;;;;24.04;94.72;98942.25;5012267;28;1945;-56
2023/08/29 05:27:30;;;;;;;;;;;;;;;24.25;92.13;98943.47;5012474;28;911;-57
2023/08/29 05:29:57;;;;;;;;;;;;;;;24.31;90.16;98949.09;5012155;28;891;-57
2023/08/29 05:32:23;;;;;;;;;;;;;;;24.39;89.34;98947.28;5012029;28;880;-56
2023/08/29 05:34:50;;;;;;;;;;;;;;;24.51;88.81;98948.00;5012000;28;876;-56
2023/08/29 05:37:17;;;;;;;;;;;;;;;24.64;89.02;98944.63;5012041;28;911;-56
2023/08/29 05:39:44;;;;;;;;;;;;;;;24.80;88.66;98951.50;5012031;28;923;-56
2023/08/29 05:42:11;;;;;;;;;;;;;;;24.86;88.26;98950.16;5011896;28;797;-56
2023/08/29 05:44:38;;;;;;;;;;;;;;;24.93;88.47;98948.84;5011999;28;1882;-56
2023/08/29 05:47:04;;;;;;;;;;;;;;;25.05;87.19;98953.16;5011980;28;848;-56
2023/08/29 05:49:32;;;;;;;;;;;;;;;25.15;85.89;98950.00;5011894;28;868;-57
2023/08/29 05:51:59;;;;;;;;;;;;;;;25.34;84.29;98941.66;5011915;28;832;-57
2023/08/29 05:54:27;;;;;;;;;;;;;;;25.62;84.71;98945.03;5011717;28;954;-57
2023/08/29 05:56:54;;;;;;;;;;;;;;;26.00;82.30;98941.63;5011829;28;923;-56
2023/08/29 05:59:21;;;;;;;;;;;;;;;26.24;80.93;98940.84;5011792;28;841;-56
2023/08/29 06:01:48;;;;;;;;;;;;;;;26.53;78.33;98944.88;5011828;28;825;-56
2023/08/29 06:04:15;;;;;;;;;;;;;;;26.81;75.81;98938.09;5011669;28;1910;-56
2023/08/29 06:06:43;;;;;;;;;;;;;;;27.31;73.38;98936.59;5010432;28;1149;-56
2023/08/29 06:09:10;;;;;;;;;;;;;;;28.10;70.35;98938.91;5011729;28;841;-56
2023/08/29 06:11:37;;;;;;;;;;;;;;;28.86;60.43;98943.31;5011698;28;860;-56
2023/08/29 06:14:04;;;;;;;;;;;;;;;29.60;55.69;98945.22;5011678;28;825;-56
2023/08/29 06:16:30;;;;;;;;;;;;;;;30.25;52.27;98939.66;5011823;28;848;-56
2023/08/29 06:18:57;;;;;;;;;;;;;;;31.11;49.97;98934.53;5012007;28;860;-56
2023/08/29 06:21:24;;;;;;;;;;;;;;;32.11;45.78;98943.19;5011592;28;832;-56
2023/08/29 06:23:51;;;;;;;;;;;;;;;32.78;43.16;98947.03;5011464;28;1881;-56
2023/08/29 06:26:18;;;;;;;;;;;;;;;33.07;41.84;98944.59;5011720;28;824;-56
2023/08/29 06:28:44;;;;;;;;;;;;;;;32.63;41.60;98948.59;5011602;28;856;-56
2023/08/29 06:31:11;;;;;;;;;;;;;;;31.65;42.66;98948.16;5011419;28;860;-56
2023/08/29 06:33:39;;;;;;;;;;;;;;;30.72;44.35;98942.19;5010165;28;1340;-56
2023/08/29 06:36:06;;;;;;;;;;;;;;;30.34;44.74;98942.00;5011300;28;963;-56
2023/08/29 06:38:34;;;;;;;;;;;;;;;30.14;45.47;98937.88;5011420;28;872;-56
2023/08/29 06:41:02;;;;;;;;;;;;;;;30.16;45.43;98949.47;5011419;28;939;-56
2023/08/29 06:43:29;;;;;;;;;;;;;;;30.22;45.55;98941.53;5011651;28;919;-56
2023/08/29 06:45:56;;;;;;;;;;;;;;;30.31;44.88;98949.59;5013682;28;1914;-56
2023/08/29 06:48:23;;;;;;;;;;;;;;;30.46;44.61;98942.44;5014900;28;828;-56
2023/08/29 06:50:50;;;;;;;;;;;;;;;30.66;43.98;98950.16;5014859;28;876;-56
2023/08/29 06:53:17;;;;;;;;;;;;;;;31.04;42.79;98946.69;5014737;28;896;-56
2023/08/29 06:55:47;;;;;;;;;;;;;;;31.33;41.80;98938.00;5015045;28;829;-56
2023/08/29 06:58:14;;;;;;;;;;;;;;;31.51;41.71;98948.31;5014533;28;881;-56
2023/08/29 07:00:41;;;;;;;;;;;;;;;31.84;41.56;98950.63;5014673;28;829;-56
2023/08/29 07:03:07;;;;;;;;;;;;;;;32.40;39.62;98947.91;5014651;28;849;-56
2023/08/29 07:05:34;;;;;;;;;;;;;;;33.04;38.26;98949.38;5014468;28;1953;-57
2023/08/29 07:08:03;;;;;;;;;;;;;;;33.74;37.01;98949.72;5014540;28;856;-57
2023/08/29 07:10:29;;;;;;;;;;;;;;;35.15;33.94;98932.69;5018631;28;971;-57
2023/08/29 07:12:55;;;;;;;;;;;;;;;36.09;31.71;98927.72;5014410;28;863;-57
2023/08/29 07:15:22;;;;;;;;;;;;;;;36.28;30.61;98929.13;5014351;28;839;-57
2023/08/29 07:17:49;;;;;;;;;;;;;;;36.55;30.14;98929.72;5014420;28;871;-57
2023/08/29 07:20:16;;;;;;;;;;;;;;;36.61;29.29;98932.31;5014246;28;864;-57
2023/08/29 07:22:43;;;;;;;;;;;;;;;36.27;29.66;98936.97;5014243;28;915;-57
2023/08/29 07:25:11;;;;;;;;;;;;;;;35.70;29.83;98923.97;5014264;28;1894;-58
2023/08/29 07:27:37;;;;;;;;;;;;;;;35.26;30.71;98919.13;5014254;28;900;-57
2023/08/29 07:30:05;;;;;;;;;;;;;;;34.98;30.78;98927.72;5014130;28;820;-57
2023/08/29 07:32:32;;;;;;;;;;;;;;;34.61;31.59;98926.84;5014080;28;971;-57
2023/08/29 07:34:59;;;;;;;;;;;;;;;34.30;31.68;98926.44;5013995;28;859;-57
2023/08/29 07:37:25;;;;;;;;;;;;;;;34.06;32.28;98922.28;5013900;28;900;-58
2023/08/29 07:39:52;;;;;;;;;;;;;;;34.03;32.72;98926.31;5013930;28;860;-57
2023/08/29 07:42:19;;;;;;;;;;;;;;;33.90;33.20;98928.16;5013731;28;1082;-58
2023/08/29 07:44:45;;;;;;;;;;;;;;;34.15;33.03;98921.63;5013795;28;1973;-57
2023/08/29 07:47:12;;;;;;;;;;;;;;;34.19;33.03;98918.38;5013998;28;804;-57
2023/08/29 07:49:38;;;;;;;;;;;;;;;34.31;32.55;98919.34;5013774;28;865;-57
2023/08/29 07:52:05;;;;;;;;;;;;;;;34.21;32.96;98915.66;4996118;28;1319;-58
2023/08/29 07:54:32;;;;;;;;;;;;;;;34.17;33.10;98913.22;5013604;28;841;-57
2023/08/29 07:56:59;;;;;;;;;;;;;;;34.36;33.21;98918.34;5012402;28;888;-57
2023/08/29 07:59:26;;;;;;;;;;;;;;;34.82;32.52;98909.19;5013660;28;828;-57
2023/08/29 08:01:53;;;;;;;;;;;;;;;35.49;31.88;98910.91;5013492;28;820;-57
2023/08/29 08:04:20;;;;;;;;;;;;;;;35.80;30.09;98910.41;5013406;28;1953;-58
2023/08/29 08:06:45;;;;;;;;;;;;;;;35.96;30.05;98903.03;5013434;28;915;-57
2023/08/29 08:09:12;;;;;;;;;;;;;;;36.58;29.96;98911.22;5013446;28;862;-57
2023/08/29 08:11:39;;;;;;;;;;;;;;;37.08;28.91;98901.13;5013599;28;954;-57
2023/08/29 08:14:06;;;;;;;;;;;;;;;37.40;28.52;98902.69;5013528;28;876;-58
2023/08/29 08:16:33;;;;;;;;;;;;;;;37.53;28.44;98909.31;5013232;28;885;-57
2023/08/29 08:18:59;;;;;;;;;;;;;;;37.75;27.91;98907.28;5013208;28;951;-57
2023/08/29 08:21:26;;;;;;;;;;;;;;;37.70;27.27;98900.44;5013051;28;872;-58
2023/08/29 08:23:52;;;;;;;;;;;;;;;37.34;28.13;98899.41;5012965;28;1945;-57
2023/08/29 08:26:19;;;;;;;;;;;;;;;37.46;27.95;98902.38;5013074;28;828;-58
2023/08/29 08:28:46;;;;;;;;;;;;;;;37.32;27.60;98904.25;5012959;28;852;-57
2023/08/29 08:31:13;;;;;;;;;;;;;;;37.63;27.61;98901.41;5012987;28;850;-57
2023/08/29 08:33:40;;;;;;;;;;;;;;;37.63;26.80;98901.41;5012892;28;848;-57
2023/08/29 08:36:07;;;;;;;;;;;;;;;37.43;27.36;98903.63;5012912;28;919;-57
2023/08/29 08:38:34;;;;;;;;;;;;;;;37.26;27.79;98898.84;5012800;28;871;-57
2023/08/29 08:41:01;;;;;;;;;;;;;;;37.57;27.57;98898.84;5013081;28;824;-57
2023/08/29 08:43:29;;;;;;;;;;;;;;;37.69;26.87;98893.19;5012995;28;909;-57
2023/08/29 08:45:56;;;;;;;;;;;;;;;37.61;27.23;98889.75;5012388;28;1977;-58
2023/08/29 08:48:23;;;;;;;;;;;;;;;37.78;27.15;98885.84;5012724;28;872;-57
2023/08/29 08:50:50;;;;;;;;;;;;;;;37.72;27.08;98894.06;5012459;28;896;-57
2023/08/29 08:53:19;;;;;;;;;;;;;;;37.53;26.91;98881.25;5012645;28;841;-57
2023/08/29 08:55:46;;;;;;;;;;;;;;;37.66;27.01;98873.47;5012496;28;872;-57
2023/08/29 08:58:13;;;;;;;;;;;;;;;37.45;27.42;98883.59;5012771;28;809;-58
2023/08/29 09:00:39;;;;;;;;;;;;;;;37.39;27.53;98874.53;5012491;28;884;-58
2023/08/29 09:03:06;;;;;;;;;;;;;;;37.31;27.23;98882.59;5012411;28;868;-57
2023/08/29 09:05:33;;;;;;;;;;;;;;;37.33;26.94;98874.09;5012317;28;1890;-58
2023/08/29 09:08:00;;;;;;;;;;;;;;;37.16;27.00;98869.31;5012272;28;840;-57
2023/08/29 09:10:31;;;;;;;;;;;;;;;37.29;27.55;98868.06;5012410;28;820;-57
2023/08/29 09:12:57;;;;;;;;;;;;;;;37.39;27.54;98860.88;5012202;28;860;-58
2023/08/29 09:15:25;;;;;;;;;;;;;;;37.51;27.51;98860.97;5012348;28;856;-57
2023/08/29 09:17:53;;;;;;;;;;;;;;;37.55;26.86;98869.13;5012241;28;820;-58
2023/08/29 09:20:20;;;;;;;;;;;;;;;37.13;27.11;98864.78;5012092;28;911;-57
2023/08/29 09:22:47;;;;;;;;;;;;;;;36.89;27.42;98864.53;5012068;28;951;-57
2023/08/29 09:25:14;;;;;;;;;;;;;;;37.01;27.79;98858.88;5012114;28;1885;-58
2023/08/29 09:27:42;;;;;;;;;;;;;;;36.99;27.44;98859.50;5012201;28;864;-58
2023/08/29 09:30:11;;;;;;;;;;;;;;;37.19;28.48;98859.44;5012034;28;947;-57
2023/08/29 09:32:40;;;;;;;;;;;;;;;37.32;27.86;98858.94;5012027;28;967;-57
2023/08/29 09:35:07;;;;;;;;;;;;;;;37.06;28.27;98869.31;5012268;28;829;-58
2023/08/29 09:37:39;;;;;;;;;;;;;;;36.91;28.22;98864.66;5012445;28;836;-57
2023/08/29 09:40:06;;;;;;;;;;;;;;;37.09;28.23;98861.59;5012042;28;1003;-57
2023/08/29 09:42:33;;;;;;;;;;;;;;;37.14;28.07;98861.28;5012018;28;1162;-57
2023/08/29 09:45:00;;;;;;;;;;;;;;;37.09;28.11;98853.75;5011790;28;2009;-58
2023/08/29 09:47:28;;;;;;;;;;;;;;;37.02;28.61;98843.13;5012164;28;836;-58
2023/08/29 09:49:55;;;;;;;;;;;;;;;36.94;28.11;98851.19;5011835;28;1019;-58
2023/08/29 09:52:23;;;;;;;;;;;;;;;36.82;28.43;98847.44;5012189;28;817;-57
2023/08/29 09:54:51;;;;;;;;;;;;;;;37.10;28.35;98849.47;5011928;28;842;-57
2023/08/29 09:57:19;;;;;;;;;;;;;;;37.32;28.22;98850.31;5011903;28;859;-57
2023/08/29 09:59:46;;;;;;;;;;;;;;;37.30;28.22;98850.16;5011804;28;848;-58
2023/08/29 10:02:13;;;;;;;;;;;;;;;36.90;28.21;98845.16;5012065;28;931;-58
2023/08/29 10:04:46;;;;;;;;;;;;;;;36.51;28.77;98839.44;5011715;28;1949;-58
2023/08/29 10:07:17;;;;;;;;;;;;;;;36.59;29.06;98846.56;5011707;28;832;-59
2023/08/29 10:09:44;;;;;;;;;;;;;;;36.62;28.76;98847.50;5011627;28;887;-57
2023/08/29 10:43:35;;;;;;;;;;;;;;;36.89;29.16;98826.34;6023721;23;1692;-64
2023/08/29 10:46:12;;;;;;;;;;;;;;;36.79;29.37;98829.28;4970803;28;1911;-66
2023/08/29 10:48:46;;;;;;;;;;;;;;;36.95;28.79;98810.25;4975813;28;881;-65
2023/08/29 10:51:18;;;;;;;;;;;;;;;37.24;28.98;98820.19;4975794;28;884;-64
2023/08/29 10:53:49;;;;;;;;;;;;;;;37.30;28.43;98815.59;4975777;28;907;-64
2023/08/29 10:56:20;;;;;;;;;;;;;;;37.27;28.69;98810.28;4975706;28;884;-65
2023/08/29 10:58:50;;;;;;;;;;;;;;;37.56;28.82;98808.03;4975466;28;827;-64
2023/08/29 11:01:28;;;;;;;;;;;;;;;37.86;28.45;98802.78;4975627;28;908;-67
2023/08/29 11:04:03;;;;;;;;;;;;;;;37.92;27.52;98793.81;4975680;28;859;-70
2023/08/29 11:06:49;;;;;;;;;;;;;;;37.68;27.96;98802.31;4975533;28;860;-66
2023/08/29 11:09:17;;;;;;;;;;;;;;;37.49;28.94;98799.53;4975578;28;895;-67
2023/08/29 11:11:44;;;;;;;;;;;;;;;37.40;28.55;98806.88;4975417;28;864;-65
2023/08/29 11:14:10;;;;;;;;;;;;;;;37.39;28.53;98800.38;4975452;28;812;-68
2023/08/29 11:16:57;;;;;;;;;;;;;;;37.89;28.15;98804.44;4975564;28;837;-64
2023/08/29 11:19:24;;;;;;;;;;;;;;;37.91;27.90;98804.56;4975437;28;1183;-65
2023/08/29 11:21:51;;;;;;;;;;;;;;;37.77;28.13;98801.50;4975259;28;853;-66
2023/08/29 11:24:20;;;;;;;;;;;;;;;37.80;28.22;98805.25;4975109;28;1960;-64
2023/08/29 11:26:47;;;;;;;;;;;;;;;38.03;27.96;98807.53;4975240;28;892;-67
2023/08/29 11:29:14;;;;;;;;;;;;;;;38.33;28.21;98800.09;4975018;28;821;-68
2023/08/29 11:31:42;;;;;;;;;;;;;;;38.20;27.77;98801.44;4974820;28;893;-65
2023/08/29 11:34:13;;;;;;;;;;;;;;;37.83;28.30;98797.50;4975050;28;908;-67
2023/08/29 11:36:40;;;;;;;;;;;;;;;37.73;28.72;98800.47;4975256;28;916;-66
2023/08/29 11:39:07;;;;;;;;;;;;;;;37.59;28.52;98791.63;4974930;28;828;-67
2023/08/29 11:41:35;;;;;;;;;;;;;;;37.72;28.04;98787.41;4974947;28;907;-70
2023/08/29 11:44:02;;;;;;;;;;;;;;;37.62;28.93;98792.50;4974725;28;1960;-64
2023/08/29 11:46:37;;;;;;;;;;;;;;;37.92;28.15;98788.03;4975182;28;829;-65
2023/08/29 11:49:13;;;;;;;;;;;;;;;37.97;28.18;98784.03;4975091;28;875;-68
2023/08/29 11:51:40;;;;;;;;;;;;;;;38.07;27.85;98773.19;4957373;28;1436;-70
2023/08/29 11:54:26;;;;;;;;;;;;;;;38.45;27.76;98779.19;4974665;28;904;-72
2023/08/29 11:56:56;;;;;;;;;;;;;;;38.33;27.10;98782.81;4947438;28;1291;-66
2023/08/29 11:59:23;;;;;;;;;;;;;;;38.14;27.87;98789.50;4974513;28;904;-66
2023/08/29 12:01:50;;;;;;;;;;;;;;;38.70;27.40;98788.03;4974527;28;864;-66
2023/08/29 12:04:16;;;;;;;;;;;;;;;38.99;26.82;98775.41;4974443;28;1894;-65
2023/08/29 12:06:43;;;;;;;;;;;;;;;38.90;26.85;98773.34;4974295;28;848;-65
2023/08/29 12:09:20;;;;;;;;;;;;;;;38.72;26.93;98767.94;4974441;28;829;-66
2023/08/29 12:11:46;;;;;;;;;;;;;;;38.69;27.46;98765.59;4974523;28;897;-69
2023/08/29 12:14:13;;;;;;;;;;;;;;;38.69;27.25;98757.66;4974373;28;884;-70
2023/08/29 12:16:40;;;;;;;;;;;;;;;38.68;27.63;98758.28;4974432;28;940;-65
2023/08/29 12:19:08;;;;;;;;;;;;;;;38.86;26.83;98753.66;4974329;28;845;-65
2023/08/29 12:21:36;;;;;;;;;;;;;;;39.01;26.97;98763.97;4974200;28;904;-67
2023/08/29 12:24:12;;;;;;;;;;;;;;;38.89;26.76;98757.41;4974067;28;1918;-64
2023/08/29 12:26:39;;;;;;;;;;;;;;;38.46;27.05;98757.63;4974222;28;892;-71
2023/08/29 12:29:06;;;;;;;;;;;;;;;38.22;27.43;98763.34;4974050;28;863;-68
2023/08/29 12:31:33;;;;;;;;;;;;;;;38.20;27.88;98772.59;4974066;28;908;-68
2023/08/29 12:34:00;;;;;;;;;;;;;;;38.15;27.74;98761.41;4973892;28;891;-65
2023/08/29 12:36:26;;;;;;;;;;;;;;;37.99;28.02;98761.84;4973963;28;868;-71
2023/08/29 12:38:53;;;;;;;;;;;;;;;37.85;28.19;98754.38;4956345;28;1352;-69
2023/08/29 12:41:21;;;;;;;;;;;;;;;38.07;28.03;98755.13;4973809;28;828;-65
2023/08/29 12:43:46;;;;;;;;;;;;;;;37.95;28.08;98743.53;4974665;28;1417;-68
2023/08/29 12:46:13;;;;;;;;;;;;;;;38.02;28.34;98756.22;4993172;28;1906;-65
2023/08/29 12:48:40;;;;;;;;;;;;;;;38.19;27.59;98747.25;4993058;28;841;-66
2023/08/29 12:51:07;;;;;;;;;;;;;;;38.20;27.97;98740.13;4992943;28;854;-65
2023/08/29 12:53:34;;;;;;;;;;;;;;;38.72;27.27;98744.84;4992933;28;915;-64
2023/08/29 12:56:01;;;;;;;;;;;;;;;39.21;26.74;98739.19;4993245;28;965;-66
2023/08/29 12:58:28;;;;;;;;;;;;;;;39.12;26.42;98730.69;4993244;28;820;-66
2023/08/29 13:00:55;;;;;;;;;;;;;;;39.20;26.85;98728.28;4993080;28;868;-67
2023/08/29 13:03:21;;;;;;;;;;;;;;;39.83;26.33;98722.56;4992844;28;875;-70
2023/08/29 13:05:48;;;;;;;;;;;;;;;39.42;26.22;98719.47;4992619;28;1890;-69
2023/08/29 13:08:17;;;;;;;;;;;;;;;39.15;26.69;98717.84;4992739;28;926;-66
2023/08/29 13:10:44;;;;;;;;;;;;;;;39.15;26.68;98723.63;4992472;28;922;-67
2023/08/29 13:13:11;;;;;;;;;;;;;;;39.04;26.66;98730.19;4992708;28;816;-64
2023/08/29 13:15:38;;;;;;;;;;;;;;;38.95;26.79;98721.03;4975036;28;1431;-65
2023/08/29 13:18:05;;;;;;;;;;;;;;;38.83;27.12;98719.50;4992880;28;825;-65
2023/08/29 13:20:33;;;;;;;;;;;;;;;38.77;26.81;98731.41;4992536;28;864;-65
2023/08/29 13:23:00;;;;;;;;;;;;;;;38.39;27.80;98719.72;4992540;28;883;-65
2023/08/29 13:25:28;;;;;;;;;;;;;;;38.30;27.68;98728.47;4992458;28;1962;-63
2023/08/29 13:27:55;;;;;;;;;;;;;;;38.28;27.24;98732.00;4992457;28;832;-65
2023/08/29 13:30:22;;;;;;;;;;;;;;;37.91;27.67;98718.06;4992521;28;874;-64
2023/08/29 13:32:49;;;;;;;;;;;;;;;37.84;28.12;98724.06;4992418;28;896;-64